sensor_id;sensor_type;location;lat;lon;timestamp;temperature;humidity
62424;DHT22;48463;43.604;3.872;2023-05-23T00:01:16;16.90;99.90
62424;DHT22;48463;43.604;3.872;2023-05-23T00:03:42;16.90;99.90
62424;DHT22;48463;43.604;3.872;2023-05-23T00:06:08;16.90;99.90
62424;DHT22;48463;43.604;3.872;2023-05-23T00:08:34;17.00;99.90
62424;DHT22;48463;43.604;3.872;2023-05-23T00:11:00;17.00;99.90
62424;DHT22;48463;43.604;3.872;2023-05-23T00:13:26;17.10;99.90
62424;DHT22;48463;43.604;3.872;2023-05-23T00:15:51;17.20;99.90
62424;DHT22;48463;43.604;3.872;2023-05-23T00:18:17;17.10;99.90
62424;DHT22;48463;43.604;3.872;2023-05-23T00:20:43;17.10;99.90
62424;DHT22;48463;43.604;3.872;2023-05-23T00:23:10;17.00;99.90
62424;DHT22;48463;43.604;3.872;2023-05-23T00:25:43;16.90;99.90
62424;DHT22;48463;43.604;3.872;2023-05-23T00:28:13;16.90;99.90
62424;DHT22;48463;43.604;3.872;2023-05-23T00:30:38;17.00;99.90
62424;DHT22;48463;43.604;3.872;2023-05-23T00:33:04;17.00;99.90
62424;DHT22;48463;43.604;3.872;2023-05-23T00:35:30;17.00;99.90
62424;DHT22;48463;43.604;3.872;2023-05-23T00:37:56;16.90;99.90
62424;DHT22;48463;43.604;3.872;2023-05-23T00:40:22;16.80;99.90
62424;DHT22;48463;43.604;3.872;2023-05-23T00:42:48;16.80;99.90
62424;DHT22;48463;43.604;3.872;2023-05-23T00:45:14;16.80;99.90
62424;DHT22;48463;43.604;3.872;2023-05-23T00:47:45;16.70;99.90
62424;DHT22;48463;43.604;3.872;2023-05-23T00:50:12;16.80;99.90
62424;DHT22;48463;43.604;3.872;2023-05-23T00:52:42;16.70;99.90
62424;DHT22;48463;43.604;3.872;2023-05-23T00:55:09;16.70;99.90
62424;DHT22;48463;43.604;3.872;2023-05-23T00:57:35;16.80;99.90
62424;DHT22;48463;43.604;3.872;2023-05-23T01:00:11;17.00;99.90
62424;DHT22;48463;43.604;3.872;2023-05-23T01:02:42;17.00;99.90
62424;DHT22;48463;43.604;3.872;2023-05-23T01:05:14;16.90;99.90
62424;DHT22;48463;43.604;3.872;2023-05-23T01:07:45;16.80;99.90
62424;DHT22;48463;43.604;3.872;2023-05-23T01:10:13;16.80;99.90
62424;DHT22;48463;43.604;3.872;2023-05-23T01:15:10;17.10;99.90
62424;DHT22;48463;43.604;3.872;2023-05-23T01:20:11;17.30;99.90
62424;DHT22;48463;43.604;3.872;2023-05-23T01:27:47;17.30;99.90
62424;DHT22;48463;43.604;3.872;2023-05-23T01:30:18;17.10;99.90
62424;DHT22;48463;43.604;3.872;2023-05-23T01:32:45;17.00;99.90
62424;DHT22;48463;43.604;3.872;2023-05-23T01:35:11;17.00;99.90
62424;DHT22;48463;43.604;3.872;2023-05-23T01:37:37;17.00;99.90
62424;DHT22;48463;43.604;3.872;2023-05-23T01:40:03;16.90;99.90
62424;DHT22;48463;43.604;3.872;2023-05-23T01:42:29;16.90;99.90
62424;DHT22;48463;43.604;3.872;2023-05-23T01:44:55;16.90;99.90
62424;DHT22;48463;43.604;3.872;2023-05-23T01:47:23;16.90;99.90
62424;DHT22;48463;43.604;3.872;2023-05-23T01:49:50;16.80;99.90
62424;DHT22;48463;43.604;3.872;2023-05-23T01:52:16;16.80;99.90
62424;DHT22;48463;43.604;3.872;2023-05-23T01:54:42;16.80;99.90
62424;DHT22;48463;43.604;3.872;2023-05-23T01:57:09;16.80;99.90
62424;DHT22;48463;43.604;3.872;2023-05-23T01:59:35;16.80;99.90
62424;DHT22;48463;43.604;3.872;2023-05-23T02:02:02;16.80;99.90
62424;DHT22;48463;43.604;3.872;2023-05-23T02:04:29;16.80;99.90
62424;DHT22;48463;43.604;3.872;2023-05-23T02:06:54;16.80;99.90
62424;DHT22;48463;43.604;3.872;2023-05-23T02:09:20;16.80;99.90
62424;DHT22;48463;43.604;3.872;2023-05-23T02:11:46;16.80;99.90
62424;DHT22;48463;43.604;3.872;2023-05-23T02:14:11;16.90;99.90
62424;DHT22;48463;43.604;3.872;2023-05-23T02:16:37;16.90;99.90
62424;DHT22;48463;43.604;3.872;2023-05-23T02:19:03;16.80;99.90
62424;DHT22;48463;43.604;3.872;2023-05-23T02:21:29;16.80;99.90
62424;DHT22;48463;43.604;3.872;2023-05-23T02:23:56;16.90;99.90
62424;DHT22;48463;43.604;3.872;2023-05-23T02:26:21;16.90;99.90
62424;DHT22;48463;43.604;3.872;2023-05-23T02:28:47;16.80;99.90
62424;DHT22;48463;43.604;3.872;2023-05-23T02:31:13;16.80;99.90
62424;DHT22;48463;43.604;3.872;2023-05-23T02:33:38;16.70;99.90
62424;DHT22;48463;43.604;3.872;2023-05-23T02:36:04;16.60;99.90
62424;DHT22;48463;43.604;3.872;2023-05-23T02:38:30;16.70;99.90
62424;DHT22;48463;43.604;3.872;2023-05-23T02:40:55;16.60;99.90
62424;DHT22;48463;43.604;3.872;2023-05-23T02:43:22;16.80;99.90
62424;DHT22;48463;43.604;3.872;2023-05-23T02:45:48;16.80;99.90
62424;DHT22;48463;43.604;3.872;2023-05-23T02:48:13;16.80;99.90
62424;DHT22;48463;43.604;3.872;2023-05-23T02:50:39;16.70;99.90
62424;DHT22;48463;43.604;3.872;2023-05-23T02:53:05;16.90;99.90
62424;DHT22;48463;43.604;3.872;2023-05-23T02:55:30;17.00;99.90
62424;DHT22;48463;43.604;3.872;2023-05-23T02:57:56;17.00;99.90
62424;DHT22;48463;43.604;3.872;2023-05-23T03:00:23;17.00;99.90
62424;DHT22;48463;43.604;3.872;2023-05-23T03:02:49;17.00;99.90
62424;DHT22;48463;43.604;3.872;2023-05-23T03:05:15;17.00;99.90
62424;DHT22;48463;43.604;3.872;2023-05-23T03:07:41;16.90;99.90
62424;DHT22;48463;43.604;3.872;2023-05-23T03:10:07;16.70;99.90
62424;DHT22;48463;43.604;3.872;2023-05-23T03:12:33;16.70;99.90
62424;DHT22;48463;43.604;3.872;2023-05-23T03:14:58;16.50;99.90
62424;DHT22;48463;43.604;3.872;2023-05-23T03:17:24;16.40;99.90
62424;DHT22;48463;43.604;3.872;2023-05-23T03:19:50;16.30;99.90
62424;DHT22;48463;43.604;3.872;2023-05-23T03:22:16;16.30;99.90
62424;DHT22;48463;43.604;3.872;2023-05-23T03:24:42;16.20;99.90
62424;DHT22;48463;43.604;3.872;2023-05-23T03:27:08;16.10;99.90
62424;DHT22;48463;43.604;3.872;2023-05-23T03:29:33;16.10;99.90
62424;DHT22;48463;43.604;3.872;2023-05-23T03:31:59;16.10;99.90
62424;DHT22;48463;43.604;3.872;2023-05-23T03:34:25;16.20;99.90
62424;DHT22;48463;43.604;3.872;2023-05-23T03:36:51;16.20;99.90
62424;DHT22;48463;43.604;3.872;2023-05-23T03:39:17;16.20;99.90
62424;DHT22;48463;43.604;3.872;2023-05-23T03:41:43;16.30;99.90
62424;DHT22;48463;43.604;3.872;2023-05-23T03:44:08;16.40;99.90
62424;DHT22;48463;43.604;3.872;2023-05-23T03:46:34;16.60;99.90
62424;DHT22;48463;43.604;3.872;2023-05-23T03:49:00;16.80;99.90
62424;DHT22;48463;43.604;3.872;2023-05-23T03:51:25;16.90;99.90
62424;DHT22;48463;43.604;3.872;2023-05-23T03:53:52;16.90;99.90
62424;DHT22;48463;43.604;3.872;2023-05-23T03:56:18;17.00;99.90
62424;DHT22;48463;43.604;3.872;2023-05-23T03:58:44;16.90;99.90
62424;DHT22;48463;43.604;3.872;2023-05-23T04:01:10;16.80;99.90
62424;DHT22;48463;43.604;3.872;2023-05-23T04:03:36;16.70;99.90
62424;DHT22;48463;43.604;3.872;2023-05-23T04:06:01;16.60;99.90
62424;DHT22;48463;43.604;3.872;2023-05-23T04:08:27;16.60;99.90
62424;DHT22;48463;43.604;3.872;2023-05-23T04:10:54;16.60;99.90
62424;DHT22;48463;43.604;3.872;2023-05-23T04:13:20;16.40;99.90
62424;DHT22;48463;43.604;3.872;2023-05-23T04:15:47;16.30;99.90
62424;DHT22;48463;43.604;3.872;2023-05-23T04:18:13;16.30;99.90
62424;DHT22;48463;43.604;3.872;2023-05-23T04:20:40;16.30;99.90
62424;DHT22;48463;43.604;3.872;2023-05-23T04:23:06;16.20;99.90
62424;DHT22;48463;43.604;3.872;2023-05-23T04:25:31;16.20;99.90
62424;DHT22;48463;43.604;3.872;2023-05-23T04:27:58;16.20;99.90
62424;DHT22;48463;43.604;3.872;2023-05-23T04:30:24;16.20;99.90
62424;DHT22;48463;43.604;3.872;2023-05-23T04:32:50;16.30;99.90
62424;DHT22;48463;43.604;3.872;2023-05-23T04:35:16;16.30;99.90
62424;DHT22;48463;43.604;3.872;2023-05-23T04:37:42;16.20;99.90
62424;DHT22;48463;43.604;3.872;2023-05-23T04:40:10;16.20;99.90
62424;DHT22;48463;43.604;3.872;2023-05-23T04:42:37;16.30;99.90
62424;DHT22;48463;43.604;3.872;2023-05-23T04:45:07;16.40;99.90
62424;DHT22;48463;43.604;3.872;2023-05-23T04:47:33;16.40;99.90
62424;DHT22;48463;43.604;3.872;2023-05-23T04:50:00;16.50;99.90
62424;DHT22;48463;43.604;3.872;2023-05-23T04:52:26;16.50;99.90
62424;DHT22;48463;43.604;3.872;2023-05-23T04:54:52;16.40;99.90
62424;DHT22;48463;43.604;3.872;2023-05-23T04:57:18;16.40;99.90
62424;DHT22;48463;43.604;3.872;2023-05-23T04:59:44;16.50;99.90
62424;DHT22;48463;43.604;3.872;2023-05-23T05:02:10;16.40;99.90
62424;DHT22;48463;43.604;3.872;2023-05-23T05:04:36;16.50;99.90
62424;DHT22;48463;43.604;3.872;2023-05-23T05:07:02;16.60;99.90
62424;DHT22;48463;43.604;3.872;2023-05-23T05:09:28;16.70;99.90
62424;DHT22;48463;43.604;3.872;2023-05-23T05:11:54;16.70;99.90
62424;DHT22;48463;43.604;3.872;2023-05-23T05:14:20;16.90;99.90
62424;DHT22;48463;43.604;3.872;2023-05-23T05:16:45;17.00;99.90
62424;DHT22;48463;43.604;3.872;2023-05-23T05:19:13;17.20;99.90
62424;DHT22;48463;43.604;3.872;2023-05-23T05:21:38;17.20;99.90
62424;DHT22;48463;43.604;3.872;2023-05-23T05:24:04;17.30;99.90
62424;DHT22;48463;43.604;3.872;2023-05-23T05:26:29;17.40;99.90
62424;DHT22;48463;43.604;3.872;2023-05-23T05:28:55;17.40;99.90
62424;DHT22;48463;43.604;3.872;2023-05-23T05:31:21;17.60;99.90
62424;DHT22;48463;43.604;3.872;2023-05-23T05:33:46;17.60;99.90
62424;DHT22;48463;43.604;3.872;2023-05-23T05:36:12;17.60;99.90
62424;DHT22;48463;43.604;3.872;2023-05-23T05:38:38;17.70;99.90
62424;DHT22;48463;43.604;3.872;2023-05-23T05:41:04;17.80;99.90
62424;DHT22;48463;43.604;3.872;2023-05-23T05:43:30;17.90;99.90
62424;DHT22;48463;43.604;3.872;2023-05-23T05:45:55;18.00;99.90
62424;DHT22;48463;43.604;3.872;2023-05-23T05:48:21;18.00;99.90
62424;DHT22;48463;43.604;3.872;2023-05-23T05:50:46;18.10;99.90
62424;DHT22;48463;43.604;3.872;2023-05-23T05:53:12;18.10;99.90
62424;DHT22;48463;43.604;3.872;2023-05-23T05:55:38;18.20;99.90
62424;DHT22;48463;43.604;3.872;2023-05-23T05:58:04;18.20;99.90
62424;DHT22;48463;43.604;3.872;2023-05-23T06:00:30;18.30;99.90
62424;DHT22;48463;43.604;3.872;2023-05-23T06:02:56;18.20;99.90
62424;DHT22;48463;43.604;3.872;2023-05-23T06:05:22;18.30;99.90
62424;DHT22;48463;43.604;3.872;2023-05-23T06:07:48;18.40;99.90
62424;DHT22;48463;43.604;3.872;2023-05-23T06:10:14;18.50;99.90
62424;DHT22;48463;43.604;3.872;2023-05-23T06:12:41;18.60;99.90
62424;DHT22;48463;43.604;3.872;2023-05-23T06:15:08;18.70;99.90
62424;DHT22;48463;43.604;3.872;2023-05-23T06:17:38;18.70;99.90
62424;DHT22;48463;43.604;3.872;2023-05-23T06:20:08;18.80;99.90
62424;DHT22;48463;43.604;3.872;2023-05-23T06:22:35;18.90;99.90
62424;DHT22;48463;43.604;3.872;2023-05-23T06:25:02;19.00;99.90
62424;DHT22;48463;43.604;3.872;2023-05-23T06:27:28;19.00;99.90
62424;DHT22;48463;43.604;3.872;2023-05-23T06:30:15;19.20;99.90
62424;DHT22;48463;43.604;3.872;2023-05-23T06:32:43;19.20;99.90
62424;DHT22;48463;43.604;3.872;2023-05-23T06:35:09;19.30;99.90
62424;DHT22;48463;43.604;3.872;2023-05-23T06:37:35;19.40;99.90
62424;DHT22;48463;43.604;3.872;2023-05-23T06:40:01;19.40;99.90
62424;DHT22;48463;43.604;3.872;2023-05-23T06:42:28;19.50;99.90
62424;DHT22;48463;43.604;3.872;2023-05-23T06:44:54;19.60;99.90
62424;DHT22;48463;43.604;3.872;2023-05-23T06:47:20;19.70;99.90
62424;DHT22;48463;43.604;3.872;2023-05-23T06:49:47;19.80;99.90
62424;DHT22;48463;43.604;3.872;2023-05-23T06:52:13;19.90;99.90
62424;DHT22;48463;43.604;3.872;2023-05-23T06:54:40;20.10;99.90
62424;DHT22;48463;43.604;3.872;2023-05-23T06:57:06;20.10;99.90
62424;DHT22;48463;43.604;3.872;2023-05-23T06:59:34;20.20;99.90
62424;DHT22;48463;43.604;3.872;2023-05-23T07:02:00;20.30;99.90
62424;DHT22;48463;43.604;3.872;2023-05-23T07:04:26;20.40;99.90
62424;DHT22;48463;43.604;3.872;2023-05-23T07:06:52;20.50;99.90
62424;DHT22;48463;43.604;3.872;2023-05-23T07:09:18;20.60;99.90
62424;DHT22;48463;43.604;3.872;2023-05-23T07:11:44;20.70;99.90
62424;DHT22;48463;43.604;3.872;2023-05-23T07:14:09;20.80;99.90
62424;DHT22;48463;43.604;3.872;2023-05-23T07:16:35;21.00;99.90
62424;DHT22;48463;43.604;3.872;2023-05-23T07:19:01;21.10;99.90
62424;DHT22;48463;43.604;3.872;2023-05-23T07:21:27;21.20;99.90
62424;DHT22;48463;43.604;3.872;2023-05-23T07:23:53;21.40;99.90
62424;DHT22;48463;43.604;3.872;2023-05-23T07:26:18;21.50;99.90
62424;DHT22;48463;43.604;3.872;2023-05-23T07:28:44;21.60;99.90
62424;DHT22;48463;43.604;3.872;2023-05-23T07:31:10;21.60;99.90
62424;DHT22;48463;43.604;3.872;2023-05-23T07:33:36;21.70;99.90
62424;DHT22;48463;43.604;3.872;2023-05-23T07:36:03;21.80;99.90
62424;DHT22;48463;43.604;3.872;2023-05-23T07:38:30;21.90;99.90
62424;DHT22;48463;43.604;3.872;2023-05-23T07:40:55;21.90;99.90
62424;DHT22;48463;43.604;3.872;2023-05-23T07:43:21;22.00;99.90
62424;DHT22;48463;43.604;3.872;2023-05-23T07:45:47;22.10;99.90
62424;DHT22;48463;43.604;3.872;2023-05-23T07:48:13;22.20;99.90
62424;DHT22;48463;43.604;3.872;2023-05-23T07:50:41;22.20;99.90
62424;DHT22;48463;43.604;3.872;2023-05-23T07:53:07;22.20;99.90
62424;DHT22;48463;43.604;3.872;2023-05-23T07:55:33;22.30;99.90
62424;DHT22;48463;43.604;3.872;2023-05-23T07:57:59;22.40;99.90
62424;DHT22;48463;43.604;3.872;2023-05-23T08:00:27;22.50;99.90
62424;DHT22;48463;43.604;3.872;2023-05-23T08:02:52;22.50;99.90
62424;DHT22;48463;43.604;3.872;2023-05-23T08:05:20;22.60;99.90
62424;DHT22;48463;43.604;3.872;2023-05-23T08:07:49;22.50;99.90
62424;DHT22;48463;43.604;3.872;2023-05-23T08:10:19;22.60;99.90
62424;DHT22;48463;43.604;3.872;2023-05-23T08:12:45;22.60;99.90
62424;DHT22;48463;43.604;3.872;2023-05-23T08:15:13;22.60;99.90
62424;DHT22;48463;43.604;3.872;2023-05-23T08:17:39;22.60;99.90
62424;DHT22;48463;43.604;3.872;2023-05-23T08:20:07;22.60;99.90
62424;DHT22;48463;43.604;3.872;2023-05-23T08:22:39;22.70;99.90
62424;DHT22;48463;43.604;3.872;2023-05-23T08:25:05;22.80;99.90
62424;DHT22;48463;43.604;3.872;2023-05-23T08:27:31;22.80;99.90
62424;DHT22;48463;43.604;3.872;2023-05-23T08:29:58;22.90;99.90
62424;DHT22;48463;43.604;3.872;2023-05-23T08:32:24;23.00;99.90
62424;DHT22;48463;43.604;3.872;2023-05-23T08:34:50;23.20;99.90
62424;DHT22;48463;43.604;3.872;2023-05-23T08:37:19;23.20;99.90
62424;DHT22;48463;43.604;3.872;2023-05-23T08:39:45;23.20;99.90
62424;DHT22;48463;43.604;3.872;2023-05-23T08:42:10;23.30;99.90
62424;DHT22;48463;43.604;3.872;2023-05-23T08:44:36;23.40;99.90
62424;DHT22;48463;43.604;3.872;2023-05-23T08:47:03;23.50;99.90
62424;DHT22;48463;43.604;3.872;2023-05-23T08:49:30;23.60;99.90
62424;DHT22;48463;43.604;3.872;2023-05-23T08:52:00;23.60;99.90
62424;DHT22;48463;43.604;3.872;2023-05-23T08:54:26;23.60;99.90
62424;DHT22;48463;43.604;3.872;2023-05-23T08:56:53;23.60;99.90
62424;DHT22;48463;43.604;3.872;2023-05-23T08:59:20;23.70;99.90
62424;DHT22;48463;43.604;3.872;2023-05-23T09:01:47;23.80;99.90
62424;DHT22;48463;43.604;3.872;2023-05-23T09:04:13;23.90;99.90
62424;DHT22;48463;43.604;3.872;2023-05-23T09:06:39;23.90;99.90
62424;DHT22;48463;43.604;3.872;2023-05-23T09:09:04;24.00;99.90
62424;DHT22;48463;43.604;3.872;2023-05-23T09:11:33;24.20;99.90
62424;DHT22;48463;43.604;3.872;2023-05-23T09:13:59;24.10;99.90
62424;DHT22;48463;43.604;3.872;2023-05-23T09:16:33;24.00;99.90
62424;DHT22;48463;43.604;3.872;2023-05-23T09:19:02;24.00;99.90
62424;DHT22;48463;43.604;3.872;2023-05-23T09:21:34;24.00;99.90
62424;DHT22;48463;43.604;3.872;2023-05-23T09:24:01;24.20;99.90
62424;DHT22;48463;43.604;3.872;2023-05-23T09:26:28;24.20;99.90
62424;DHT22;48463;43.604;3.872;2023-05-23T09:28:57;24.30;99.90
62424;DHT22;48463;43.604;3.872;2023-05-23T09:31:26;24.20;99.90
62424;DHT22;48463;43.604;3.872;2023-05-23T09:33:54;24.30;99.90
62424;DHT22;48463;43.604;3.872;2023-05-23T09:36:22;24.40;99.90
62424;DHT22;48463;43.604;3.872;2023-05-23T09:38:48;24.40;99.90
62424;DHT22;48463;43.604;3.872;2023-05-23T09:41:15;24.50;99.90
62424;DHT22;48463;43.604;3.872;2023-05-23T09:43:50;24.60;99.90
62424;DHT22;48463;43.604;3.872;2023-05-23T09:46:18;24.60;99.90
62424;DHT22;48463;43.604;3.872;2023-05-23T09:48:48;24.70;99.90
62424;DHT22;48463;43.604;3.872;2023-05-23T09:51:19;24.90;99.90
62424;DHT22;48463;43.604;3.872;2023-05-23T09:53:48;25.00;99.90
62424;DHT22;48463;43.604;3.872;2023-05-23T09:56:15;25.00;99.90
62424;DHT22;48463;43.604;3.872;2023-05-23T09:58:49;25.20;99.90
62424;DHT22;48463;43.604;3.872;2023-05-23T10:01:15;25.40;99.90
62424;DHT22;48463;43.604;3.872;2023-05-23T10:03:51;25.40;99.90
62424;DHT22;48463;43.604;3.872;2023-05-23T10:06:31;25.40;99.90
62424;DHT22;48463;43.604;3.872;2023-05-23T10:09:05;25.40;99.90
62424;DHT22;48463;43.604;3.872;2023-05-23T10:14:00;25.60;99.90
62424;DHT22;48463;43.604;3.872;2023-05-23T10:16:33;25.60;99.90
62424;DHT22;48463;43.604;3.872;2023-05-23T10:19:02;25.50;99.90
62424;DHT22;48463;43.604;3.872;2023-05-23T10:21:39;25.50;99.90
62424;DHT22;48463;43.604;3.872;2023-05-23T10:24:07;25.70;99.90
62424;DHT22;48463;43.604;3.872;2023-05-23T10:26:33;25.70;99.90
62424;DHT22;48463;43.604;3.872;2023-05-23T10:28:59;25.50;99.90
62424;DHT22;48463;43.604;3.872;2023-05-23T10:31:26;25.10;99.90
62424;DHT22;48463;43.604;3.872;2023-05-23T10:34:00;25.40;99.90
62424;DHT22;48463;43.604;3.872;2023-05-23T10:36:33;25.70;99.90
62424;DHT22;48463;43.604;3.872;2023-05-23T10:39:07;26.00;99.90
62424;DHT22;48463;43.604;3.872;2023-05-23T10:41:42;26.10;99.90
62424;DHT22;48463;43.604;3.872;2023-05-23T10:44:11;26.40;99.90
62424;DHT22;48463;43.604;3.872;2023-05-23T10:46:57;26.70;99.90
62424;DHT22;48463;43.604;3.872;2023-05-23T10:49:45;26.60;99.80
62424;DHT22;48463;43.604;3.872;2023-05-23T10:52:13;26.20;99.90
62424;DHT22;48463;43.604;3.872;2023-05-23T10:54:50;26.10;99.90
62424;DHT22;48463;43.604;3.872;2023-05-23T10:57:18;26.00;99.90
62424;DHT22;48463;43.604;3.872;2023-05-23T10:59:45;26.20;99.90
62424;DHT22;48463;43.604;3.872;2023-05-23T11:02:17;26.50;99.60
62424;DHT22;48463;43.604;3.872;2023-05-23T11:04:44;26.70;98.70
62424;DHT22;48463;43.604;3.872;2023-05-23T11:07:29;27.10;98.30
62424;DHT22;48463;43.604;3.872;2023-05-23T11:10:12;27.10;98.00
62424;DHT22;48463;43.604;3.872;2023-05-23T11:12:43;27.10;97.50
62424;DHT22;48463;43.604;3.872;2023-05-23T11:15:27;27.30;98.00
62424;DHT22;48463;43.604;3.872;2023-05-23T11:17:55;27.50;97.60
62424;DHT22;48463;43.604;3.872;2023-05-23T11:20:25;27.20;97.50
62424;DHT22;48463;43.604;3.872;2023-05-23T11:22:59;26.80;98.10
62424;DHT22;48463;43.604;3.872;2023-05-23T11:25:49;26.50;98.10
62424;DHT22;48463;43.604;3.872;2023-05-23T11:28:17;26.30;98.50
62424;DHT22;48463;43.604;3.872;2023-05-23T11:30:47;26.40;99.00
62424;DHT22;48463;43.604;3.872;2023-05-23T11:33:14;27.00;98.50
62424;DHT22;48463;43.604;3.872;2023-05-23T11:35:48;27.10;97.70
62424;DHT22;48463;43.604;3.872;2023-05-23T11:38:16;27.40;98.30
62424;DHT22;48463;43.604;3.872;2023-05-23T11:40:44;27.60;97.70
62424;DHT22;48463;43.604;3.872;2023-05-23T11:43:14;27.20;97.60
62424;DHT22;48463;43.604;3.872;2023-05-23T11:45:41;27.00;97.80
62424;DHT22;48463;43.604;3.872;2023-05-23T11:48:18;26.70;98.60
62424;DHT22;48463;43.604;3.872;2023-05-23T11:51:09;27.20;97.90
62424;DHT22;48463;43.604;3.872;2023-05-23T11:53:35;27.00;97.80
62424;DHT22;48463;43.604;3.872;2023-05-23T11:56:01;27.10;97.50
62424;DHT22;48463;43.604;3.872;2023-05-23T11:58:36;27.20;97.60
62424;DHT22;48463;43.604;3.872;2023-05-23T12:01:06;27.20;98.00
62424;DHT22;48463;43.604;3.872;2023-05-23T12:03:46;27.00;98.10
62424;DHT22;48463;43.604;3.872;2023-05-23T12:06:29;26.90;98.30
62424;DHT22;48463;43.604;3.872;2023-05-23T12:08:58;26.70;99.50
62424;DHT22;48463;43.604;3.872;2023-05-23T12:11:24;26.80;99.60
62424;DHT22;48463;43.604;3.872;2023-05-23T12:13:51;26.60;99.70
62424;DHT22;48463;43.604;3.872;2023-05-23T12:16:17;26.80;99.90
62424;DHT22;48463;43.604;3.872;2023-05-23T12:18:43;27.00;99.90
62424;DHT22;48463;43.604;3.872;2023-05-23T12:21:09;27.30;99.40
62424;DHT22;48463;43.604;3.872;2023-05-23T12:23:35;27.40;98.60
62424;DHT22;48463;43.604;3.872;2023-05-23T12:26:04;27.40;98.40
62424;DHT22;48463;43.604;3.872;2023-05-23T12:31:24;27.70;97.70
62424;DHT22;48463;43.604;3.872;2023-05-23T12:33:51;27.70;97.20
62424;DHT22;48463;43.604;3.872;2023-05-23T12:36:25;28.00;97.00
62424;DHT22;48463;43.604;3.872;2023-05-23T12:38:51;28.00;96.70
62424;DHT22;48463;43.604;3.872;2023-05-23T12:41:18;27.80;96.30
62424;DHT22;48463;43.604;3.872;2023-05-23T12:43:52;27.80;96.90
62424;DHT22;48463;43.604;3.872;2023-05-23T12:46:23;28.00;96.00
62424;DHT22;48463;43.604;3.872;2023-05-23T12:48:49;28.10;96.80
62424;DHT22;48463;43.604;3.872;2023-05-23T12:51:15;27.90;97.00
62424;DHT22;48463;43.604;3.872;2023-05-23T12:53:41;28.00;97.20
62424;DHT22;48463;43.604;3.872;2023-05-23T12:56:07;27.90;97.40
62424;DHT22;48463;43.604;3.872;2023-05-23T12:58:33;28.10;97.30
62424;DHT22;48463;43.604;3.872;2023-05-23T13:01:00;28.00;96.90
62424;DHT22;48463;43.604;3.872;2023-05-23T13:03:27;28.20;96.60
62424;DHT22;48463;43.604;3.872;2023-05-23T13:05:54;28.40;96.60
62424;DHT22;48463;43.604;3.872;2023-05-23T13:08:20;28.40;97.00
62424;DHT22;48463;43.604;3.872;2023-05-23T13:10:46;28.20;97.30
62424;DHT22;48463;43.604;3.872;2023-05-23T13:13:12;28.30;97.50
62424;DHT22;48463;43.604;3.872;2023-05-23T13:15:38;28.50;96.70
62424;DHT22;48463;43.604;3.872;2023-05-23T13:18:04;28.50;97.30
62424;DHT22;48463;43.604;3.872;2023-05-23T13:20:31;28.70;96.80
62424;DHT22;48463;43.604;3.872;2023-05-23T13:22:57;28.30;96.10
62424;DHT22;48463;43.604;3.872;2023-05-23T13:25:24;28.20;96.10
62424;DHT22;48463;43.604;3.872;2023-05-23T13:28:08;28.70;96.10
62424;DHT22;48463;43.604;3.872;2023-05-23T13:30:34;28.30;96.00
62424;DHT22;48463;43.604;3.872;2023-05-23T13:32:59;28.90;95.60
62424;DHT22;48463;43.604;3.872;2023-05-23T13:35:25;28.60;95.40
62424;DHT22;48463;43.604;3.872;2023-05-23T13:37:51;28.60;95.20
62424;DHT22;48463;43.604;3.872;2023-05-23T13:40:18;28.70;95.00
62424;DHT22;48463;43.604;3.872;2023-05-23T13:42:48;28.60;95.20
62424;DHT22;48463;43.604;3.872;2023-05-23T13:45:15;28.90;95.30
62424;DHT22;48463;43.604;3.872;2023-05-23T13:47:42;29.00;95.40
62424;DHT22;48463;43.604;3.872;2023-05-23T13:50:08;29.00;94.80
62424;DHT22;48463;43.604;3.872;2023-05-23T13:52:35;28.70;94.90
62424;DHT22;48463;43.604;3.872;2023-05-23T13:55:01;28.90;94.80
62424;DHT22;48463;43.604;3.872;2023-05-23T13:57:27;28.80;94.90
62424;DHT22;48463;43.604;3.872;2023-05-23T13:59:52;28.90;94.60
62424;DHT22;48463;43.604;3.872;2023-05-23T14:02:18;28.70;94.70
62424;DHT22;48463;43.604;3.872;2023-05-23T14:04:44;28.80;94.10
62424;DHT22;48463;43.604;3.872;2023-05-23T14:07:09;28.90;94.10
62424;DHT22;48463;43.604;3.872;2023-05-23T14:09:35;29.20;94.10
62424;DHT22;48463;43.604;3.872;2023-05-23T14:12:01;29.00;94.90
62424;DHT22;48463;43.604;3.872;2023-05-23T14:14:26;28.60;95.00
62424;DHT22;48463;43.604;3.872;2023-05-23T14:16:52;28.70;95.00
62424;DHT22;48463;43.604;3.872;2023-05-23T14:19:18;27.70;95.10
62424;DHT22;48463;43.604;3.872;2023-05-23T14:21:44;27.00;93.10
62424;DHT22;48463;43.604;3.872;2023-05-23T14:24:10;26.70;92.60
62424;DHT22;48463;43.604;3.872;2023-05-23T14:26:36;26.10;93.20
62424;DHT22;48463;43.604;3.872;2023-05-23T14:29:02;25.50;94.30
62424;DHT22;48463;43.604;3.872;2023-05-23T14:31:28;24.90;95.60
62424;DHT22;48463;43.604;3.872;2023-05-23T14:33:55;24.70;96.70
62424;DHT22;48463;43.604;3.872;2023-05-23T14:36:21;24.30;97.40
62424;DHT22;48463;43.604;3.872;2023-05-23T14:38:46;24.00;97.40
62424;DHT22;48463;43.604;3.872;2023-05-23T14:41:13;24.00;97.60
62424;DHT22;48463;43.604;3.872;2023-05-23T14:43:39;23.30;98.20
62424;DHT22;48463;43.604;3.872;2023-05-23T14:46:05;23.50;98.40
62424;DHT22;48463;43.604;3.872;2023-05-23T14:48:31;24.40;97.80
62424;DHT22;48463;43.604;3.872;2023-05-23T14:50:56;23.90;96.70
62424;DHT22;48463;43.604;3.872;2023-05-23T14:53:29;23.70;97.30
62424;DHT22;48463;43.604;3.872;2023-05-23T14:55:55;23.70;97.70
62424;DHT22;48463;43.604;3.872;2023-05-23T14:58:21;23.70;97.50
62424;DHT22;48463;43.604;3.872;2023-05-23T15:00:48;23.10;97.40
62424;DHT22;48463;43.604;3.872;2023-05-23T15:03:14;23.10;98.00
62424;DHT22;48463;43.604;3.872;2023-05-23T15:05:40;23.10;97.80
62424;DHT22;48463;43.604;3.872;2023-05-23T15:08:05;23.10;97.40
62424;DHT22;48463;43.604;3.872;2023-05-23T15:10:32;22.50;97.60
62424;DHT22;48463;43.604;3.872;2023-05-23T15:12:57;22.40;98.40
62424;DHT22;48463;43.604;3.872;2023-05-23T15:15:23;22.60;98.90
62424;DHT22;48463;43.604;3.872;2023-05-23T15:17:51;22.50;99.20
62424;DHT22;48463;43.604;3.872;2023-05-23T15:20:17;22.00;99.90
62424;DHT22;48463;43.604;3.872;2023-05-23T15:22:42;22.10;99.90
62424;DHT22;48463;43.604;3.872;2023-05-23T15:25:08;22.00;99.90
62424;DHT22;48463;43.604;3.872;2023-05-23T15:27:35;21.90;99.90
62424;DHT22;48463;43.604;3.872;2023-05-23T15:30:01;21.80;99.90
62424;DHT22;48463;43.604;3.872;2023-05-23T15:32:27;21.80;99.90
62424;DHT22;48463;43.604;3.872;2023-05-23T15:34:52;22.10;99.90
62424;DHT22;48463;43.604;3.872;2023-05-23T15:37:18;22.30;99.90
62424;DHT22;48463;43.604;3.872;2023-05-23T15:39:44;22.20;99.90
62424;DHT22;48463;43.604;3.872;2023-05-23T15:42:09;21.60;99.90
62424;DHT22;48463;43.604;3.872;2023-05-23T15:44:36;21.70;99.90
62424;DHT22;48463;43.604;3.872;2023-05-23T15:47:02;21.60;99.90